createdAt,value
2018-05-18T00:02:01.550Z,99.90
2018-05-18T00:04:29.054Z,99.90
2018-05-18T00:06:57.292Z,99.90
2018-05-18T00:09:24.822Z,99.90
2018-05-18T00:11:52.297Z,99.90
2018-05-18T00:14:19.791Z,99.90
2018-05-18T00:16:48.060Z,99.90
2018-05-18T00:19:15.555Z,99.90
2018-05-18T00:21:43.801Z,99.90
2018-05-18T00:24:11.272Z,99.90
2018-05-18T00:26:39.550Z,99.90
2018-05-18T00:29:07.785Z,99.90
2018-05-18T00:31:35.377Z,99.90
2018-05-18T00:34:02.850Z,99.90
2018-05-18T00:36:31.097Z,99.90
2018-05-18T00:38:58.566Z,99.90
2018-05-18T00:41:26.824Z,99.90
2018-05-18T00:43:54.310Z,99.90
2018-05-18T00:46:21.821Z,99.90
2018-05-18T00:48:49.318Z,99.90
2018-05-18T00:51:16.844Z,99.90
2018-05-18T00:53:44.299Z,99.90
2018-05-18T00:56:11.804Z,99.90
2018-05-18T00:58:39.323Z,99.90
2018-05-18T01:01:06.852Z,99.90
2018-05-18T01:03:34.454Z,99.90
2018-05-18T01:06:02.189Z,99.90
2018-05-18T01:08:29.661Z,99.90
2018-05-18T01:10:57.144Z,99.90
2018-05-18T01:13:24.613Z,99.90
2018-05-18T01:15:52.112Z,99.90
2018-05-18T01:18:20.357Z,99.90
2018-05-18T01:20:47.811Z,99.90
2018-05-18T01:23:15.331Z,99.90
2018-05-18T01:25:42.818Z,99.90
2018-05-18T01:28:10.447Z,99.90
2018-05-18T01:30:37.932Z,99.90
2018-05-18T01:33:05.444Z,99.90
2018-05-18T01:35:34.403Z,99.90
2018-05-18T01:38:01.918Z,99.90
2018-05-18T01:40:29.402Z,99.90
2018-05-18T01:42:56.888Z,99.90
2018-05-18T01:45:24.424Z,99.90
2018-05-18T01:47:51.920Z,99.90
2018-05-18T01:50:20.172Z,99.90
2018-05-18T01:52:47.654Z,99.90
2018-05-18T01:55:15.172Z,99.90
2018-05-18T01:57:42.644Z,99.90
2018-05-18T02:00:10.201Z,99.90
2018-05-18T02:02:38.016Z,99.90
2018-05-18T02:05:06.257Z,99.90
2018-05-18T02:07:33.731Z,99.90
2018-05-18T02:10:01.216Z,99.90
2018-05-18T02:12:28.687Z,99.90
2018-05-18T02:14:56.176Z,99.90
2018-05-18T02:17:23.655Z,99.90
2018-05-18T02:19:51.164Z,99.90
2018-05-18T02:22:18.646Z,99.90
2018-05-18T02:24:46.594Z,99.90
2018-05-18T02:27:14.323Z,99.90
2018-05-18T02:29:42.600Z,99.90
2018-05-18T02:32:10.829Z,99.90
2018-05-18T02:34:38.337Z,99.90
2018-05-18T02:37:06.616Z,99.90
2018-05-18T02:39:34.875Z,99.90
2018-05-18T02:42:02.358Z,99.90
2018-05-18T02:44:30.640Z,99.90
2018-05-18T02:46:58.225Z,99.90
2018-05-18T02:49:25.733Z,99.90
2018-05-18T02:51:53.208Z,99.90
2018-05-18T02:54:21.451Z,99.90
2018-05-18T02:56:48.932Z,99.90
2018-05-18T02:59:16.465Z,99.90
2018-05-18T03:01:43.959Z,99.90
2018-05-18T03:04:12.208Z,99.90
2018-05-18T03:06:39.993Z,99.90
2018-05-18T03:09:07.764Z,99.90
2018-05-18T03:11:36.025Z,99.90
2018-05-18T03:14:03.556Z,99.90
2018-05-18T03:16:31.033Z,99.90
2018-05-18T03:18:58.542Z,99.90
2018-05-18T03:21:26.028Z,99.90
2018-05-18T03:23:53.516Z,99.90
2018-05-18T03:26:20.995Z,99.90
2018-05-18T03:28:49.253Z,99.90
2018-05-18T03:31:17.593Z,99.90
2018-05-18T03:33:45.072Z,99.90
2018-05-18T03:36:12.566Z,99.90
2018-05-18T03:38:40.925Z,99.90
2018-05-18T03:41:08.421Z,99.90
2018-05-18T03:43:36.665Z,99.90
2018-05-18T03:46:04.138Z,99.90
2018-05-18T03:48:31.610Z,99.90
2018-05-18T03:50:59.119Z,99.90
2018-05-18T03:53:26.864Z,99.90
2018-05-18T03:55:54.333Z,99.90
2018-05-18T03:58:21.858Z,99.90
2018-05-18T04:00:50.080Z,99.90
2018-05-18T04:03:29.405Z,99.90
2018-05-18T04:06:08.785Z,99.90
2018-05-18T04:08:48.797Z,99.90
2018-05-18T04:11:16.264Z,99.90
2018-05-18T04:13:43.785Z,99.90
2018-05-18T04:16:12.008Z,99.90
2018-05-18T04:18:39.591Z,99.90
2018-05-18T04:21:07.061Z,99.90
2018-05-18T04:23:35.318Z,99.90
2018-05-18T04:26:03.188Z,99.90
2018-05-18T04:28:30.774Z,99.90
2018-05-18T04:30:59.013Z,99.90
2018-05-18T04:33:26.516Z,99.90
2018-05-18T04:35:54.001Z,99.90
2018-05-18T04:38:21.488Z,99.90
2018-05-18T04:40:48.988Z,99.90
2018-05-18T04:43:17.337Z,99.90
2018-05-18T04:45:45.227Z,99.90
2018-05-18T04:48:13.474Z,99.90
2018-05-18T04:50:40.961Z,99.90
2018-05-18T04:53:08.485Z,99.90
2018-05-18T04:55:35.984Z,99.90
2018-05-18T04:58:04.213Z,99.90
2018-05-18T05:00:31.728Z,99.90
2018-05-18T05:02:59.206Z,99.90
2018-05-18T05:05:26.816Z,99.90
2018-05-18T05:07:54.213Z,99.90
2018-05-18T05:10:21.742Z,99.90
2018-05-18T05:12:50.709Z,99.90
2018-05-18T05:15:18.495Z,99.90
2018-05-18T05:17:46.157Z,99.90
2018-05-18T05:20:13.702Z,99.90
2018-05-18T05:22:41.186Z,99.90
2018-05-18T05:25:09.605Z,99.90
2018-05-18T05:27:37.097Z,99.90
2018-05-18T05:30:04.629Z,99.90
2018-05-18T05:32:32.108Z,99.90
2018-05-18T05:34:59.589Z,99.90
2018-05-18T05:37:27.082Z,99.90
2018-05-18T05:39:55.323Z,99.90
2018-05-18T05:42:23.122Z,99.90
2018-05-18T05:44:50.596Z,99.90
2018-05-18T05:47:18.089Z,99.90
2018-05-18T05:49:45.638Z,99.90
2018-05-18T05:52:13.113Z,99.90
2018-05-18T05:54:40.615Z,99.90
2018-05-18T05:57:08.873Z,99.90
2018-05-18T05:59:36.344Z,99.90
2018-05-18T06:02:04.564Z,99.90
2018-05-18T06:04:32.289Z,99.90
2018-05-18T06:07:00.539Z,99.90
2018-05-18T06:09:28.036Z,99.90
2018-05-18T06:11:56.290Z,99.90
2018-05-18T06:14:23.774Z,99.90
2018-05-18T06:16:51.257Z,99.90
2018-05-18T06:19:18.761Z,99.90
2018-05-18T06:21:47.368Z,99.90
2018-05-18T06:24:15.693Z,99.90
2018-05-18T06:26:43.252Z,99.90
2018-05-18T06:29:10.808Z,99.90
2018-05-18T06:31:38.271Z,99.90
2018-05-18T06:34:05.756Z,99.90
2018-05-18T06:36:33.270Z,99.90
2018-05-18T06:39:00.765Z,99.90
2018-05-18T06:41:28.245Z,99.90
2018-05-18T06:43:55.745Z,99.90
2018-05-18T06:46:23.349Z,99.90
2018-05-18T06:48:50.848Z,99.90
2018-05-18T06:51:18.352Z,99.90
2018-05-18T06:53:45.823Z,99.90
2018-05-18T06:56:13.310Z,99.90
2018-05-18T06:58:40.805Z,99.90
2018-05-18T07:01:08.292Z,99.90
2018-05-18T07:03:35.782Z,99.90
2018-05-18T07:06:04.116Z,99.90
2018-05-18T07:08:31.590Z,99.90
2018-05-18T07:10:59.128Z,99.90
2018-05-18T07:13:26.595Z,99.90
2018-05-18T07:15:54.096Z,99.90
2018-05-18T07:18:22.342Z,99.90
2018-05-18T07:20:49.857Z,99.90
2018-05-18T07:23:17.327Z,99.90
2018-05-18T07:25:44.789Z,99.90
2018-05-18T07:28:12.323Z,99.90
2018-05-18T07:30:39.864Z,99.90
2018-05-18T07:33:07.337Z,99.90
2018-05-18T07:35:35.585Z,97.20
2018-05-18T07:38:03.367Z,97.30
2018-05-18T07:40:31.605Z,99.90
2018-05-18T07:42:59.089Z,99.90
2018-05-18T07:45:26.618Z,99.90
2018-05-18T07:47:54.089Z,99.80
2018-05-18T07:50:21.571Z,96.10
2018-05-18T07:52:49.328Z,92.10
2018-05-18T07:55:16.792Z,91.80
2018-05-18T07:57:44.273Z,89.20
2018-05-18T08:00:11.786Z,86.10
2018-05-18T08:02:39.257Z,83.80
2018-05-18T08:05:06.745Z,83.90
2018-05-18T08:07:35.003Z,91.80
2018-05-18T08:10:02.489Z,91.70
2018-05-18T08:12:29.972Z,93.30
2018-05-18T08:14:57.828Z,94.00
2018-05-18T08:17:25.240Z,93.30
2018-05-18T08:19:52.752Z,91.70
2018-05-18T08:22:20.208Z,88.50
2018-05-18T08:24:47.722Z,86.20
2018-05-18T08:27:22.636Z,87.20
2018-05-18T08:29:50.364Z,90.50
2018-05-18T08:32:18.090Z,91.30
2018-05-18T08:34:45.574Z,92.50
2018-05-18T08:37:13.841Z,92.90
2018-05-18T08:39:42.347Z,93.50
2018-05-18T08:42:09.832Z,93.60
2018-05-18T08:44:37.314Z,91.30
2018-05-18T08:47:04.790Z,91.30
2018-05-18T08:49:33.077Z,87.30
2018-05-18T08:52:01.308Z,83.20
2018-05-18T08:54:28.796Z,83.10
2018-05-18T08:56:56.527Z,82.30
2018-05-18T08:59:24.062Z,85.90
2018-05-18T09:01:52.200Z,81.30
2018-05-18T09:04:19.724Z,76.50
2018-05-18T09:06:47.444Z,74.30
2018-05-18T09:09:15.050Z,72.20
2018-05-18T09:11:43.365Z,72.70
2018-05-18T09:14:11.622Z,72.70
2018-05-18T09:16:40.451Z,72.70
2018-05-18T09:19:08.937Z,73.40
2018-05-18T09:21:36.610Z,73.40
2018-05-18T09:24:04.064Z,73.50
2018-05-18T09:26:31.665Z,71.90
2018-05-18T09:29:00.149Z,67.80
2018-05-18T09:31:27.736Z,66.00
2018-05-18T09:33:55.251Z,66.50
2018-05-18T09:36:23.178Z,67.10
2018-05-18T09:38:51.467Z,65.30
2018-05-18T09:41:19.716Z,63.60
2018-05-18T09:43:47.189Z,63.50
2018-05-18T09:46:15.431Z,61.80
2018-05-18T09:48:42.920Z,62.40
2018-05-18T09:51:11.279Z,63.20
2018-05-18T09:53:39.077Z,62.60
2018-05-18T09:56:07.309Z,67.80
2018-05-18T09:58:34.969Z,67.70
2018-05-18T10:01:03.549Z,65.30
2018-05-18T10:03:31.272Z,62.50
2018-05-18T10:05:59.694Z,58.40
2018-05-18T10:08:27.240Z,59.30
2018-05-18T10:10:54.720Z,61.00
2018-05-18T10:13:22.240Z,61.90
2018-05-18T10:15:49.871Z,60.50
2018-05-18T10:18:17.780Z,62.30
2018-05-18T10:20:45.300Z,61.30
2018-05-18T10:23:12.801Z,57.90
2018-05-18T10:25:40.450Z,56.90
2018-05-18T10:28:08.149Z,57.40
2018-05-18T10:30:36.501Z,59.90
2018-05-18T10:33:04.015Z,59.50
2018-05-18T10:35:31.494Z,57.40
2018-05-18T10:37:59.748Z,58.30
2018-05-18T10:40:27.227Z,58.30
2018-05-18T10:42:55.619Z,61.80
2018-05-18T10:45:23.963Z,60.00
2018-05-18T10:47:51.449Z,60.00
2018-05-18T10:50:19.430Z,63.70
2018-05-18T10:52:46.906Z,63.50
2018-05-18T10:55:14.416Z,62.20
2018-05-18T10:57:41.895Z,62.10
2018-05-18T11:00:10.196Z,61.60
2018-05-18T11:02:37.701Z,61.60
2018-05-18T11:05:05.245Z,61.10
2018-05-18T11:07:32.746Z,63.00
2018-05-18T11:10:00.994Z,62.50
2018-05-18T11:12:28.510Z,62.50
2018-05-18T11:14:56.911Z,60.60
2018-05-18T11:17:24.410Z,62.60
2018-05-18T11:19:52.489Z,62.70
2018-05-18T11:22:20.765Z,65.70
2018-05-18T11:24:48.252Z,65.70
2018-05-18T11:27:15.902Z,67.30
2018-05-18T11:29:44.618Z,70.30
2018-05-18T11:32:12.107Z,70.30
2018-05-18T11:34:39.588Z,67.40
2018-05-18T11:37:07.113Z,68.00
2018-05-18T11:39:34.594Z,68.00
2018-05-18T11:42:02.053Z,66.50
2018-05-18T11:44:29.532Z,67.10
2018-05-18T11:46:56.995Z,67.30
2018-05-18T11:49:25.274Z,68.60
2018-05-18T11:51:52.846Z,68.60
2018-05-18T11:54:20.358Z,71.80
2018-05-18T11:56:47.830Z,68.90
2018-05-18T11:59:15.304Z,68.80
2018-05-18T12:01:43.563Z,69.80
2018-05-18T12:04:11.154Z,69.30
2018-05-18T12:06:39.407Z,73.60
2018-05-18T12:09:06.909Z,73.40
2018-05-18T12:11:34.433Z,71.50
2018-05-18T12:14:01.980Z,69.60
2018-05-18T12:16:29.411Z,70.80
2018-05-18T12:18:57.094Z,70.00
2018-05-18T12:21:24.586Z,70.50
2018-05-18T12:23:52.837Z,70.00
2018-05-18T12:26:20.344Z,69.80
2018-05-18T12:28:47.844Z,69.50
2018-05-18T12:31:15.337Z,70.20
2018-05-18T12:33:42.832Z,69.60
2018-05-18T12:36:10.327Z,69.20
2018-05-18T12:38:37.853Z,70.90
2018-05-18T12:41:05.337Z,74.20
2018-05-18T12:43:32.961Z,74.60
2018-05-18T12:46:00.525Z,74.20
2018-05-18T12:48:28.040Z,73.10
2018-05-18T12:50:55.577Z,70.60
2018-05-18T12:53:23.070Z,72.70
2018-05-18T12:55:50.568Z,71.00
2018-05-18T12:58:18.089Z,72.00
2018-05-18T13:00:45.549Z,71.10
2018-05-18T13:03:13.804Z,71.80
2018-05-18T13:05:41.281Z,71.80
2018-05-18T13:08:08.870Z,72.40
2018-05-18T13:10:36.270Z,71.90
2018-05-18T13:13:03.932Z,71.80
2018-05-18T13:15:31.418Z,72.70
2018-05-18T13:17:59.040Z,73.00
2018-05-18T13:20:26.538Z,70.50
2018-05-18T13:22:54.032Z,72.30
2018-05-18T13:25:21.500Z,73.00
2018-05-18T13:27:48.996Z,73.10
2018-05-18T13:30:16.526Z,70.30
2018-05-18T13:32:44.029Z,71.30
2018-05-18T13:35:11.536Z,75.30
2018-05-18T13:37:39.069Z,72.60
2018-05-18T13:40:07.361Z,74.10
2018-05-18T13:42:35.602Z,72.30
2018-05-18T13:45:03.199Z,72.20
2018-05-18T13:47:30.643Z,73.50
2018-05-18T13:49:59.025Z,72.50
2018-05-18T13:52:27.322Z,74.70
2018-05-18T13:54:54.842Z,74.60
2018-05-18T13:57:22.347Z,73.50
2018-05-18T13:59:49.824Z,75.20
2018-05-18T14:02:17.312Z,73.60
2018-05-18T14:04:44.823Z,74.90
2018-05-18T14:07:12.335Z,71.60
2018-05-18T14:09:40.606Z,74.10
2018-05-18T14:12:08.248Z,73.90
2018-05-18T14:14:35.848Z,76.90
2018-05-18T14:17:03.450Z,74.70
2018-05-18T14:19:30.973Z,75.00
2018-05-18T14:21:59.082Z,72.20
2018-05-18T14:24:26.571Z,71.30
2018-05-18T14:26:54.093Z,69.20
2018-05-18T14:29:21.576Z,70.00
2018-05-18T14:31:49.165Z,70.70
2018-05-18T14:34:17.409Z,73.10
2018-05-18T14:36:45.013Z,73.20
2018-05-18T14:39:12.543Z,72.20
2018-05-18T14:41:40.061Z,72.90
2018-05-18T14:44:10.467Z,69.00
2018-05-18T14:46:37.996Z,69.00
2018-05-18T14:49:05.481Z,70.50
2018-05-18T14:51:33.025Z,72.70
2018-05-18T14:54:03.701Z,72.40
2018-05-18T14:56:32.084Z,71.90
2018-05-18T14:59:00.368Z,72.50
2018-05-18T15:01:27.896Z,73.60
2018-05-18T15:03:57.694Z,72.30
2018-05-18T15:06:26.274Z,72.80
2018-05-18T15:08:55.062Z,72.60
2018-05-18T15:11:25.033Z,70.70
2018-05-18T15:13:55.311Z,71.60
2018-05-18T15:16:27.245Z,71.30
2018-05-18T15:18:56.700Z,71.10
2018-05-18T15:21:30.548Z,70.10
2018-05-18T15:24:02.044Z,70.00
2018-05-18T15:26:29.613Z,69.00
2018-05-18T15:28:57.139Z,68.70
2018-05-18T15:31:24.609Z,70.00
2018-05-18T15:33:52.099Z,69.10
2018-05-18T15:36:20.373Z,68.90
2018-05-18T15:38:48.637Z,68.30
2018-05-18T15:41:16.173Z,68.80
2018-05-18T15:43:43.982Z,68.50
2018-05-18T15:46:12.242Z,68.10
2018-05-18T15:48:39.713Z,68.10
2018-05-18T15:51:08.033Z,70.20
2018-05-18T15:53:35.502Z,70.00
2018-05-18T15:56:03.034Z,70.90
2018-05-18T15:58:30.509Z,70.60
2018-05-18T16:00:58.023Z,71.00
2018-05-18T16:03:25.493Z,70.20
2018-05-18T16:05:53.744Z,68.70
2018-05-18T16:08:21.235Z,68.70
2018-05-18T16:10:49.477Z,68.40
2018-05-18T16:13:16.967Z,68.40
2018-05-18T16:15:45.241Z,68.20
2018-05-18T16:18:13.515Z,68.60
2018-05-18T16:20:41.793Z,67.60
2018-05-18T16:23:10.024Z,67.30
2018-05-18T16:25:37.513Z,67.20
2018-05-18T16:28:05.876Z,66.20
2018-05-18T16:30:33.278Z,66.20
2018-05-18T16:33:01.588Z,68.10
2018-05-18T16:35:29.075Z,68.10
2018-05-18T16:37:56.548Z,67.60
2018-05-18T16:40:24.026Z,68.40
2018-05-18T16:42:52.376Z,66.30
2018-05-18T16:45:19.872Z,66.30
2018-05-18T16:47:47.423Z,66.00
2018-05-18T16:50:14.900Z,65.70
2018-05-18T16:52:42.441Z,65.40
2018-05-18T16:55:10.092Z,66.20
2018-05-18T16:57:37.624Z,65.80
2018-05-18T17:00:05.196Z,67.50
2018-05-18T17:02:32.740Z,68.10
2018-05-18T17:05:00.330Z,68.00
2018-05-18T17:07:27.807Z,66.90
2018-05-18T17:09:56.089Z,67.70
2018-05-18T17:12:24.342Z,67.30
2018-05-18T17:14:51.865Z,67.30
2018-05-18T17:17:19.333Z,67.50
2018-05-18T17:19:46.941Z,65.80
2018-05-18T17:22:15.507Z,65.70
2018-05-18T17:24:43.177Z,65.80
2018-05-18T17:27:10.685Z,66.30
2018-05-18T17:29:38.174Z,66.30
2018-05-18T17:32:05.691Z,66.50
2018-05-18T17:34:33.272Z,67.20
2018-05-18T17:37:00.811Z,67.30
2018-05-18T17:39:28.304Z,67.20
2018-05-18T17:41:55.826Z,68.10
2018-05-18T17:44:23.309Z,69.40
2018-05-18T17:46:50.799Z,70.70
2018-05-18T17:49:18.322Z,71.10
2018-05-18T17:51:45.822Z,72.60
2018-05-18T17:54:13.337Z,74.10
2018-05-18T17:56:40.828Z,74.90
2018-05-18T17:59:08.430Z,75.90
2018-05-18T18:01:36.701Z,76.80
2018-05-18T18:04:05.582Z,76.80
2018-05-18T18:06:33.477Z,76.80
2018-05-18T18:09:01.101Z,77.20
2018-05-18T18:11:29.644Z,78.00
2018-05-18T18:13:58.017Z,77.60
2018-05-18T18:16:28.478Z,76.30
2018-05-18T18:18:55.992Z,76.30
2018-05-18T18:21:23.601Z,76.80
2018-05-18T18:23:51.093Z,77.70
2018-05-18T18:26:19.395Z,78.90
2018-05-18T18:28:47.054Z,78.80
2018-05-18T18:31:14.482Z,80.20
2018-05-18T18:33:41.965Z,81.10
2018-05-18T18:36:09.616Z,81.40
2018-05-18T18:38:37.118Z,82.10
2018-05-18T18:41:04.614Z,83.90
2018-05-18T18:43:32.400Z,85.50
2018-05-18T18:46:00.652Z,87.60
2018-05-18T18:48:28.129Z,87.60
2018-05-18T18:50:56.398Z,90.00
2018-05-18T18:53:23.924Z,90.00
2018-05-18T18:55:51.413Z,90.20
2018-05-18T18:58:18.994Z,90.70
2018-05-18T19:00:47.509Z,91.10
2018-05-18T19:03:15.078Z,91.10
2018-05-18T19:05:42.574Z,90.70
2018-05-18T19:08:10.372Z,90.90
2018-05-18T19:10:38.250Z,91.50
2018-05-18T19:13:06.942Z,92.20
2018-05-18T19:15:34.426Z,92.20
2018-05-18T19:18:02.018Z,93.10
2018-05-18T19:20:29.562Z,93.80
2018-05-18T19:22:57.357Z,95.30
2018-05-18T19:25:25.654Z,97.20
2018-05-18T19:27:53.183Z,97.20
2018-05-18T19:30:20.671Z,98.60
2018-05-18T19:32:48.237Z,99.90
2018-05-18T19:35:15.957Z,99.90
2018-05-18T19:37:44.984Z,99.90
2018-05-18T19:40:13.656Z,99.90
2018-05-18T19:42:41.309Z,99.90
2018-05-18T19:45:08.776Z,99.90
2018-05-18T19:47:36.281Z,99.90
2018-05-18T19:50:03.790Z,99.90
2018-05-18T19:52:31.292Z,99.90
2018-05-18T19:54:58.773Z,99.90
2018-05-18T19:57:26.321Z,99.90
2018-05-18T19:59:54.585Z,99.90
2018-05-18T20:02:22.111Z,99.90
2018-05-18T20:04:50.381Z,99.90
2018-05-18T20:07:18.172Z,99.90
2018-05-18T20:09:46.439Z,99.90
2018-05-18T20:12:13.947Z,99.90
2018-05-18T20:14:41.452Z,99.90
2018-05-18T20:17:10.903Z,99.90
2018-05-18T20:19:38.662Z,99.90
2018-05-18T20:22:06.146Z,99.90
2018-05-18T20:24:33.677Z,99.90
2018-05-18T20:27:01.147Z,99.90
2018-05-18T20:29:28.664Z,99.90
2018-05-18T20:31:56.156Z,99.90
2018-05-18T20:34:23.940Z,99.90
2018-05-18T20:36:51.429Z,99.90
2018-05-18T20:39:18.952Z,99.90
2018-05-18T20:41:46.511Z,99.90
2018-05-18T20:44:13.978Z,99.90
2018-05-18T20:46:41.470Z,99.90
2018-05-18T20:49:09.441Z,99.90
2018-05-18T20:51:36.941Z,99.90
2018-05-18T20:54:04.420Z,99.90
2018-05-18T20:56:31.915Z,99.90
2018-05-18T20:58:59.776Z,99.90
2018-05-18T21:01:27.294Z,99.90
2018-05-18T21:03:54.849Z,99.90
2018-05-18T21:06:22.363Z,99.90
2018-05-18T21:08:50.187Z,99.90
2018-05-18T21:11:17.733Z,99.90
2018-05-18T21:13:45.213Z,99.90
2018-05-18T21:16:12.730Z,99.90
2018-05-18T21:18:41.000Z,99.90
2018-05-18T21:21:09.417Z,99.90
2018-05-18T21:23:36.958Z,99.90
2018-05-18T21:26:04.453Z,99.90
2018-05-18T21:28:31.960Z,99.90
2018-05-18T21:31:00.199Z,99.90
2018-05-18T21:33:27.769Z,99.90
2018-05-18T21:35:55.473Z,99.90
2018-05-18T21:38:23.731Z,99.90
2018-05-18T21:40:51.245Z,99.90
2018-05-18T21:43:18.852Z,99.90
2018-05-18T21:45:47.476Z,99.90
2018-05-18T21:48:14.951Z,99.90
2018-05-18T21:50:42.520Z,99.90
2018-05-18T21:53:10.822Z,99.90
2018-05-18T21:55:39.106Z,99.90
2018-05-18T21:58:06.643Z,99.90
2018-05-18T22:00:34.192Z,99.90
2018-05-18T22:03:01.694Z,99.90
2018-05-18T22:05:30.758Z,99.90
2018-05-18T22:07:58.341Z,99.90
2018-05-18T22:10:25.898Z,99.90
2018-05-18T22:12:53.550Z,99.90
2018-05-18T22:15:21.076Z,99.90
2018-05-18T22:17:48.559Z,99.90
2018-05-18T22:20:16.052Z,99.90
2018-05-18T22:22:43.569Z,99.90
2018-05-18T22:25:11.061Z,99.90
2018-05-18T22:27:38.613Z,99.90
2018-05-18T22:30:06.129Z,99.90
2018-05-18T22:32:34.616Z,99.90
2018-05-18T22:35:02.146Z,99.90
2018-05-18T22:37:30.424Z,99.90
2018-05-18T22:39:58.738Z,99.90
2018-05-18T22:42:26.323Z,99.90
2018-05-18T22:44:53.853Z,99.90
2018-05-18T22:47:22.075Z,99.90
2018-05-18T22:49:49.836Z,99.90
2018-05-18T22:52:18.129Z,99.90
2018-05-18T22:54:45.594Z,99.90
2018-05-18T22:57:14.217Z,99.90
2018-05-18T22:59:41.705Z,99.90
2018-05-18T23:02:09.201Z,99.90
2018-05-18T23:04:37.427Z,99.90
2018-05-18T23:07:04.959Z,99.90
2018-05-18T23:09:32.421Z,99.90
2018-05-18T23:11:59.895Z,99.90
2018-05-18T23:14:27.408Z,99.90
2018-05-18T23:16:55.678Z,99.90
2018-05-18T23:19:23.996Z,99.90
2018-05-18T23:21:51.487Z,99.90
2018-05-18T23:24:18.998Z,99.90
2018-05-18T23:26:47.237Z,99.90
2018-05-18T23:29:15.290Z,99.90
2018-05-18T23:31:42.883Z,99.90
2018-05-18T23:34:11.129Z,99.90
2018-05-18T23:36:38.601Z,99.90
2018-05-18T23:39:06.844Z,99.90
2018-05-18T23:41:34.453Z,99.90
2018-05-18T23:44:01.944Z,99.90
2018-05-18T23:46:29.424Z,99.90
2018-05-18T23:48:56.927Z,99.90
2018-05-18T23:51:24.410Z,99.90
2018-05-18T23:53:52.679Z,99.90
2018-05-18T23:56:20.959Z,99.90
2018-05-18T23:58:49.257Z,99.90
